createdAt,value
2023-03-11T00:02:43.999Z,12.35
2023-03-11T00:05:35.701Z,15.02
2023-03-11T00:08:23.954Z,11.63
2023-03-11T00:11:09.113Z,13.80
2023-03-11T00:13:53.678Z,15.82
2023-03-11T00:16:38.776Z,11.73
2023-03-11T00:19:23.771Z,14.45
2023-03-11T00:22:08.878Z,13.25
2023-03-11T00:24:53.420Z,14.27
2023-03-11T00:30:24.329Z,15.77
2023-03-11T00:33:11.769Z,12.38
2023-03-11T00:35:58.487Z,13.98
2023-03-11T00:38:43.202Z,13.73
2023-03-11T00:41:30.873Z,11.93
2023-03-11T00:44:15.691Z,14.52
2023-03-11T00:47:00.879Z,12.43
2023-03-11T00:49:45.883Z,12.15
2023-03-11T00:52:30.444Z,12.85
2023-03-11T00:55:20.029Z,11.20
2023-03-11T00:58:06.564Z,12.63
2023-03-11T01:01:19.803Z,13.20
2023-03-11T01:04:05.116Z,12.05
2023-03-11T01:06:49.986Z,14.10
2023-03-11T01:09:35.396Z,13.18
2023-03-11T01:12:20.360Z,11.57
2023-03-11T01:15:06.123Z,11.98
2023-03-11T01:17:51.065Z,12.20
2023-03-11T01:20:37.876Z,10.65
2023-03-11T01:23:22.908Z,11.98
2023-03-11T01:26:08.198Z,10.48
2023-03-11T01:28:53.045Z,11.50
2023-03-11T01:31:38.393Z,10.65
2023-03-11T01:34:22.870Z,11.15
2023-03-11T01:39:51.808Z,13.90
2023-03-11T01:42:37.032Z,10.23
2023-03-11T01:46:01.818Z,8.95
2023-03-11T01:48:50.285Z,10.65
2023-03-11T01:51:42.676Z,8.68
2023-03-11T01:54:37.043Z,15.95
2023-03-11T01:57:22.863Z,9.50
2023-03-11T02:00:10.681Z,11.68
2023-03-11T02:03:01.653Z,9.48
2023-03-11T02:05:48.538Z,9.60
2023-03-11T02:08:33.625Z,8.80
2023-03-11T02:11:24.189Z,10.15
2023-03-11T02:14:09.148Z,11.35
2023-03-11T02:16:56.606Z,7.97
2023-03-11T02:20:19.473Z,8.00
2023-03-11T02:26:01.558Z,8.38
2023-03-11T02:28:49.826Z,10.98
2023-03-11T02:31:37.795Z,9.73
2023-03-11T02:34:28.921Z,10.23
2023-03-11T02:37:16.610Z,8.93
2023-03-11T02:40:22.239Z,10.52
2023-03-11T02:43:12.442Z,8.98
2023-03-11T02:45:58.292Z,8.95
2023-03-11T02:48:44.030Z,10.10
2023-03-11T02:51:30.386Z,9.38
2023-03-11T02:54:15.782Z,9.13
2023-03-11T02:57:01.056Z,10.57
2023-03-11T02:59:45.825Z,9.13
2023-03-11T03:02:32.131Z,8.75
2023-03-11T03:05:20.093Z,8.63
2023-03-11T03:08:05.216Z,10.48
2023-03-11T03:10:50.040Z,8.43
2023-03-11T03:13:35.802Z,9.55
2023-03-11T03:16:20.395Z,8.63
2023-03-11T03:19:06.498Z,7.95
2023-03-11T03:21:51.621Z,8.13
2023-03-11T03:24:38.784Z,9.77
2023-03-11T03:27:24.242Z,7.60
2023-03-11T03:30:10.947Z,10.02
2023-03-11T03:32:56.399Z,9.27
2023-03-11T03:35:44.752Z,10.25
2023-03-11T03:38:56.867Z,10.20
2023-03-11T03:41:45.727Z,10.52
2023-03-11T03:44:30.745Z,7.97
2023-03-11T03:47:17.647Z,13.35
2023-03-11T03:50:05.741Z,10.77
2023-03-11T03:52:50.752Z,8.07
2023-03-11T03:55:36.691Z,9.82
2023-03-11T03:58:21.729Z,7.55
2023-03-11T04:01:08.372Z,8.88
2023-03-11T04:03:54.284Z,7.90
2023-03-11T04:06:39.359Z,7.82
2023-03-11T04:09:25.510Z,9.40
2023-03-11T04:12:14.706Z,8.07
2023-03-11T04:14:59.939Z,7.72
2023-03-11T04:17:46.144Z,7.75
2023-03-11T04:20:31.474Z,9.20
2023-03-11T04:23:16.380Z,7.07
2023-03-11T04:26:01.438Z,8.07
2023-03-11T04:28:46.361Z,6.72
2023-03-11T04:31:32.824Z,6.38
2023-03-11T04:34:20.663Z,10.27
2023-03-11T04:37:05.911Z,7.63
2023-03-11T04:39:52.812Z,6.97
2023-03-11T04:42:38.565Z,6.13
2023-03-11T04:45:23.909Z,8.68
2023-03-11T04:48:12.384Z,7.30
2023-03-11T04:50:58.822Z,7.90
2023-03-11T04:53:44.941Z,8.30
2023-03-11T04:56:30.333Z,7.85
2023-03-11T04:59:15.824Z,9.70
2023-03-11T05:02:02.970Z,9.27
2023-03-11T05:04:49.968Z,8.40
2023-03-11T05:07:35.674Z,8.15
2023-03-11T05:10:23.732Z,9.57
2023-03-11T05:13:12.717Z,11.23
2023-03-11T05:15:59.222Z,9.95
2023-03-11T05:18:43.940Z,10.88
2023-03-11T05:21:31.683Z,9.73
2023-03-11T05:24:17.149Z,8.98
2023-03-11T05:27:02.786Z,10.68
2023-03-11T05:29:48.477Z,9.32
2023-03-11T05:32:34.807Z,11.20
2023-03-11T05:35:20.260Z,10.00
2023-03-11T05:38:05.373Z,10.18
2023-03-11T05:40:50.739Z,9.60
2023-03-11T05:43:36.014Z,9.15
2023-03-11T05:46:21.991Z,8.68
2023-03-11T05:49:07.148Z,8.32
2023-03-11T05:51:54.363Z,12.02
2023-03-11T05:54:41.352Z,11.68
2023-03-11T05:57:26.789Z,8.98
2023-03-11T06:00:12.393Z,9.40
2023-03-11T06:03:05.084Z,10.02
2023-03-11T06:05:52.103Z,8.43
2023-03-11T06:08:37.449Z,9.85
2023-03-11T06:11:26.241Z,10.10
2023-03-11T06:14:13.238Z,9.50
2023-03-11T06:17:00.189Z,8.63
2023-03-11T06:19:45.343Z,8.70
2023-03-11T06:22:30.125Z,8.13
2023-03-11T06:25:15.064Z,10.40
2023-03-11T06:28:01.333Z,8.88
2023-03-11T06:30:46.979Z,9.30
2023-03-11T06:33:33.528Z,8.55
2023-03-11T06:36:19.971Z,9.07
2023-03-11T06:39:04.980Z,10.40
2023-03-11T06:41:50.271Z,8.30
2023-03-11T06:44:35.851Z,8.73
2023-03-11T06:47:21.056Z,9.60
2023-03-11T06:50:08.592Z,8.38
2023-03-11T06:52:53.594Z,8.77
2023-03-11T06:55:38.556Z,7.90
2023-03-11T06:58:23.467Z,10.40
2023-03-11T07:01:18.883Z,8.75
2023-03-11T07:04:03.884Z,10.38
2023-03-11T07:06:49.994Z,7.65
2023-03-11T07:09:39.158Z,8.93
2023-03-11T07:12:25.709Z,10.25
2023-03-11T07:15:10.931Z,7.10
2023-03-11T07:17:56.100Z,8.65
2023-03-11T07:20:41.076Z,7.60
2023-03-11T07:23:26.058Z,7.68
2023-03-11T07:26:14.245Z,7.82
2023-03-11T07:28:59.319Z,7.60
2023-03-11T07:31:44.641Z,9.48
2023-03-11T07:34:29.509Z,7.63
2023-03-11T07:37:15.355Z,8.63
2023-03-11T07:40:00.552Z,8.07
2023-03-11T07:42:45.348Z,7.43
2023-03-11T07:45:30.298Z,8.73
2023-03-11T07:48:15.289Z,8.82
2023-03-11T07:51:05.547Z,8.65
2023-03-11T07:53:53.200Z,9.27
2023-03-11T07:56:38.216Z,8.90
2023-03-11T07:59:23.327Z,9.35
2023-03-11T08:02:10.330Z,8.73
2023-03-11T08:04:56.592Z,10.68
2023-03-11T08:07:41.387Z,8.55
2023-03-11T08:10:26.203Z,9.73
2023-03-11T08:13:11.050Z,9.98
2023-03-11T08:15:55.995Z,10.00
2023-03-11T08:18:41.934Z,10.00
2023-03-11T08:21:30.315Z,9.45
2023-03-11T08:24:15.103Z,8.90
2023-03-11T08:27:00.127Z,10.05
2023-03-11T08:29:45.320Z,10.27
2023-03-11T08:32:30.980Z,10.02
2023-03-11T08:35:17.072Z,10.40
2023-03-11T08:38:02.379Z,15.15
2023-03-11T08:40:47.161Z,16.42
2023-03-11T08:43:32.335Z,14.85
2023-03-11T08:46:25.065Z,13.90
2023-03-11T08:49:09.943Z,13.38
2023-03-11T08:51:54.846Z,15.85
2023-03-11T08:54:40.132Z,12.02
2023-03-11T08:57:25.294Z,11.98
2023-03-11T09:00:13.166Z,10.70
2023-03-11T09:02:58.905Z,9.10
2023-03-11T09:05:43.806Z,9.60
2023-03-11T09:08:29.085Z,10.38
2023-03-11T09:11:15.590Z,10.93
2023-03-11T09:14:00.129Z,13.05
2023-03-11T09:16:45.658Z,10.80
2023-03-11T09:19:30.339Z,13.40
2023-03-11T09:22:16.099Z,14.20
2023-03-11T09:25:00.979Z,13.45
2023-03-11T09:27:46.566Z,14.85
2023-03-11T09:30:31.483Z,15.13
2023-03-11T09:33:16.193Z,16.05
2023-03-11T09:36:01.182Z,16.63
2023-03-11T09:38:47.170Z,18.38
2023-03-11T09:41:47.891Z,21.17
2023-03-11T09:44:58.733Z,22.20
2023-03-11T09:48:05.383Z,20.02
2023-03-11T09:50:58.004Z,16.60
2023-03-11T09:53:52.066Z,19.92
2023-03-11T09:56:37.992Z,20.77
2023-03-11T09:59:30.662Z,20.48
2023-03-11T10:02:20.711Z,22.30
2023-03-11T10:05:19.380Z,20.70
2023-03-11T10:08:28.537Z,18.02
2023-03-11T10:11:24.294Z,20.20
2023-03-11T10:14:27.617Z,19.40
2023-03-11T10:17:39.858Z,19.67
2023-03-11T10:20:47.880Z,19.98
2023-03-11T10:23:54.395Z,22.73
2023-03-11T10:26:48.526Z,24.02
2023-03-11T10:29:45.483Z,25.30
2023-03-11T10:32:53.605Z,22.90
2023-03-11T10:35:43.987Z,32.83
2023-03-11T10:38:48.952Z,32.53
2023-03-11T10:41:46.109Z,36.63
2023-03-11T10:47:23.185Z,35.80
2023-03-11T10:50:16.354Z,32.67
2023-03-11T10:53:09.154Z,34.55
2023-03-11T10:55:56.684Z,37.10
2023-03-11T10:58:48.397Z,34.75
2023-03-11T11:01:33.531Z,39.58
2023-03-11T11:04:27.727Z,34.28
2023-03-11T11:07:28.417Z,37.92
2023-03-11T11:10:22.340Z,35.90
2023-03-11T11:13:13.229Z,39.80
2023-03-11T11:16:02.542Z,37.25
2023-03-11T11:18:51.255Z,36.55
2023-03-11T11:21:49.843Z,38.40
2023-03-11T11:24:34.722Z,37.75
2023-03-11T11:30:18.075Z,42.75
2023-03-11T11:33:32.750Z,40.85
2023-03-11T11:36:18.477Z,46.90
2023-03-11T11:39:15.998Z,47.50
2023-03-11T11:42:01.203Z,48.60
2023-03-11T11:44:49.958Z,48.00
2023-03-11T11:47:37.261Z,47.67
2023-03-11T11:50:43.884Z,60.55
2023-03-11T11:53:46.173Z,64.85
2023-03-11T11:56:31.202Z,55.08
2023-03-11T11:59:21.511Z,54.30
2023-03-11T12:02:15.844Z,51.10
2023-03-11T12:05:28.522Z,50.20
2023-03-11T12:08:16.197Z,50.80
2023-03-11T12:11:06.046Z,55.45
2023-03-11T12:14:02.565Z,54.53
2023-03-11T12:16:51.741Z,55.50
2023-03-11T12:19:50.118Z,54.08
2023-03-11T12:22:40.736Z,57.67
2023-03-11T12:25:36.198Z,56.25
2023-03-11T12:28:44.660Z,56.08
2023-03-11T12:31:38.287Z,55.03
2023-03-11T12:34:24.748Z,63.97
2023-03-11T12:37:14.272Z,59.97
2023-03-11T12:39:59.208Z,64.85
2023-03-11T12:42:45.502Z,60.90
2023-03-11T12:45:51.200Z,53.90
2023-03-11T12:48:45.705Z,64.10
2023-03-11T12:51:38.515Z,62.78
2023-03-11T12:54:33.748Z,66.88
2023-03-11T12:57:18.613Z,61.75
2023-03-11T13:00:18.045Z,69.20
2023-03-11T13:03:06.194Z,67.63
2023-03-11T13:05:58.816Z,63.80
2023-03-11T13:08:45.792Z,62.08
2023-03-11T13:11:33.981Z,58.75
2023-03-11T13:14:35.457Z,58.88
2023-03-11T13:17:26.091Z,55.58
2023-03-11T13:20:41.190Z,61.92
2023-03-11T13:23:29.027Z,57.30
2023-03-11T13:26:37.186Z,55.17
2023-03-11T13:29:28.707Z,53.65
2023-03-11T13:32:19.784Z,51.85
2023-03-11T13:38:39.018Z,51.60
2023-03-11T13:41:34.550Z,52.30
2023-03-11T13:44:19.391Z,46.03
2023-03-11T13:50:08.758Z,49.85
2023-03-11T13:52:54.661Z,52.38
2023-03-11T13:55:47.174Z,58.28
2023-03-11T13:58:31.992Z,54.58
2023-03-11T14:01:18.686Z,58.83
2023-03-11T14:04:10.753Z,51.80
2023-03-11T14:06:55.427Z,49.30
2023-03-11T14:09:40.538Z,50.85
2023-03-11T14:12:31.359Z,53.00
2023-03-11T14:15:22.951Z,49.80
2023-03-11T14:18:28.139Z,48.15
2023-03-11T14:21:16.591Z,53.72
2023-03-11T14:24:03.039Z,51.95
2023-03-11T14:26:49.640Z,55.13
2023-03-11T14:29:37.239Z,53.97
2023-03-11T14:32:33.646Z,50.00
2023-03-11T14:35:20.184Z,47.58
2023-03-11T14:38:21.060Z,50.60
2023-03-11T14:41:06.661Z,52.67
2023-03-11T14:43:53.550Z,58.25
2023-03-11T14:46:39.081Z,60.75
2023-03-11T14:49:23.883Z,55.53
2023-03-11T14:52:29.903Z,62.42
2023-03-11T14:55:40.881Z,56.25
2023-03-11T14:58:35.306Z,57.42
2023-03-11T15:01:28.392Z,59.00
2023-03-11T15:04:23.595Z,55.03
2023-03-11T15:07:08.545Z,57.17
2023-03-11T15:09:54.148Z,55.13
2023-03-11T15:12:44.307Z,59.80
2023-03-11T15:15:29.254Z,48.92
2023-03-11T15:18:21.038Z,50.88
2023-03-11T15:21:18.786Z,53.22
2023-03-11T15:24:06.122Z,47.53
2023-03-11T15:26:59.197Z,51.67
2023-03-11T15:29:51.806Z,44.38
2023-03-11T15:32:43.437Z,44.30
2023-03-11T15:35:30.725Z,40.35
2023-03-11T15:38:27.614Z,37.00
2023-03-11T15:41:12.249Z,37.47
2023-03-11T15:44:01.734Z,32.35
2023-03-11T15:46:46.665Z,33.30
2023-03-11T15:49:31.545Z,34.50
2023-03-11T15:52:18.651Z,31.15
2023-03-11T15:55:04.249Z,38.22
2023-03-11T15:57:52.246Z,33.08
2023-03-11T16:00:40.045Z,32.63
2023-03-11T16:03:24.692Z,30.42
2023-03-11T16:06:09.533Z,29.65
2023-03-11T16:08:54.554Z,32.28
2023-03-11T16:11:40.507Z,28.98
2023-03-11T16:14:25.607Z,21.67
2023-03-11T16:17:13.894Z,20.98
2023-03-11T16:19:58.918Z,23.05
2023-03-11T16:22:44.457Z,26.08
2023-03-11T16:25:33.625Z,22.90
2023-03-11T16:28:18.586Z,22.73
2023-03-11T16:31:03.863Z,22.95
2023-03-11T16:33:49.550Z,24.25
2023-03-11T16:36:34.106Z,21.92
2023-03-11T16:39:18.950Z,27.30
2023-03-11T16:42:04.213Z,29.77
2023-03-11T16:44:49.524Z,29.20
2023-03-11T16:47:33.962Z,28.40
2023-03-11T16:50:20.633Z,28.67
2023-03-11T16:53:05.853Z,26.95
2023-03-11T16:55:51.235Z,24.88
2023-03-11T16:58:35.843Z,27.00
2023-03-11T17:01:22.042Z,26.40
2023-03-11T17:04:07.417Z,28.77
2023-03-11T17:06:52.293Z,21.50
2023-03-11T17:09:37.356Z,25.20
2023-03-11T17:12:22.553Z,27.02
2023-03-11T17:15:07.946Z,28.83
2023-03-11T17:17:52.805Z,25.20
2023-03-11T17:20:39.767Z,25.92
2023-03-11T17:23:24.464Z,22.88
2023-03-11T17:26:15.718Z,20.90
2023-03-11T17:29:00.392Z,20.77
2023-03-11T17:31:45.785Z,18.58
2023-03-11T17:34:30.832Z,17.33
2023-03-11T17:37:16.084Z,18.65
2023-03-11T17:40:00.974Z,16.67
2023-03-11T17:42:45.998Z,14.65
2023-03-11T17:45:31.021Z,16.23
2023-03-11T17:48:16.426Z,13.75
2023-03-11T17:51:12.691Z,13.05
2023-03-11T17:53:57.817Z,13.63
2023-03-11T17:56:42.706Z,13.27
2023-03-11T17:59:27.392Z,14.68
2023-03-11T18:02:14.091Z,11.90
2023-03-11T18:04:59.012Z,10.65
2023-03-11T18:07:43.902Z,9.88
2023-03-11T18:10:28.986Z,11.70
2023-03-11T18:13:13.890Z,10.52
2023-03-11T18:16:04.633Z,11.35
2023-03-11T18:18:50.450Z,10.23
2023-03-11T18:21:34.996Z,11.98
2023-03-11T18:27:04.908Z,12.07
2023-03-11T18:29:50.447Z,10.52
2023-03-11T18:32:35.334Z,13.68
2023-03-11T18:35:21.718Z,16.00
2023-03-11T18:38:06.412Z,9.57
2023-03-11T18:40:57.533Z,11.48
2023-03-11T18:43:42.414Z,11.50
2023-03-11T18:46:32.779Z,10.13
2023-03-11T18:49:17.605Z,9.77
2023-03-11T18:52:02.948Z,10.02
2023-03-11T18:54:48.576Z,11.32
2023-03-11T18:57:32.964Z,12.02
2023-03-11T19:00:21.771Z,11.05
2023-03-11T19:03:12.018Z,12.48
2023-03-11T19:05:57.017Z,13.70
2023-03-11T19:08:42.779Z,14.10
2023-03-11T19:11:28.203Z,15.93
2023-03-11T19:14:12.908Z,13.65
2023-03-11T19:16:57.869Z,15.57
2023-03-11T19:19:43.018Z,16.25
2023-03-11T19:22:27.935Z,13.38
2023-03-11T19:25:12.948Z,14.15
2023-03-11T19:27:57.848Z,13.00
2023-03-11T19:30:43.058Z,12.68
2023-03-11T19:33:28.253Z,12.90
2023-03-11T19:36:13.223Z,10.85
2023-03-11T19:38:58.016Z,17.13
2023-03-11T19:41:42.920Z,13.20
2023-03-11T19:44:27.942Z,14.20
2023-03-11T19:47:12.780Z,14.43
2023-03-11T19:49:58.058Z,14.85
2023-03-11T19:52:42.729Z,12.10
2023-03-11T19:55:27.923Z,11.90
2023-03-11T19:58:12.752Z,10.55
2023-03-11T20:00:59.263Z,10.18
2023-03-11T20:03:44.299Z,9.98
2023-03-11T20:06:29.023Z,8.20
2023-03-11T20:09:15.553Z,6.93
2023-03-11T20:12:00.643Z,5.47
2023-03-11T20:14:45.963Z,6.85
2023-03-11T20:17:30.823Z,6.95
2023-03-11T20:20:16.087Z,6.90
2023-03-11T20:23:01.508Z,6.55
2023-03-11T20:25:46.115Z,7.95
2023-03-11T20:28:31.105Z,7.82
2023-03-11T20:31:21.412Z,9.50
2023-03-11T20:34:06.639Z,9.77
2023-03-11T20:36:51.503Z,9.88
2023-03-11T20:39:38.071Z,10.35
2023-03-11T20:42:23.082Z,10.65
2023-03-11T20:45:08.664Z,10.30
2023-03-11T20:47:53.371Z,8.45
2023-03-11T20:50:38.383Z,10.13
2023-03-11T20:53:24.751Z,7.32
2023-03-11T20:56:12.901Z,5.28
2023-03-11T20:58:58.481Z,5.50
2023-03-11T21:01:45.198Z,8.10
2023-03-11T21:04:30.090Z,4.05
2023-03-11T21:07:14.911Z,6.82
2023-03-11T21:10:00.931Z,5.40
2023-03-11T21:12:45.896Z,4.07
2023-03-11T21:15:30.950Z,4.78
2023-03-11T21:18:16.138Z,1.63
2023-03-11T21:21:03.153Z,3.35
2023-03-11T21:23:48.378Z,2.58
2023-03-11T21:26:34.924Z,3.00
2023-03-11T21:29:19.829Z,4.82
2023-03-11T21:32:05.328Z,3.55
2023-03-11T21:34:50.750Z,3.63
2023-03-11T21:37:35.335Z,3.90
2023-03-11T21:40:20.694Z,4.43
2023-03-11T21:43:05.830Z,6.40
2023-03-11T21:45:52.925Z,5.60
2023-03-11T21:48:38.915Z,5.55
2023-03-11T21:51:24.886Z,5.43
2023-03-11T21:54:11.842Z,5.38
2023-03-11T21:56:56.584Z,5.22
2023-03-11T21:59:41.805Z,5.30
2023-03-11T22:02:26.435Z,5.88
2023-03-11T22:07:57.043Z,5.55
2023-03-11T22:13:26.890Z,5.78
2023-03-11T22:18:57.126Z,5.80
2023-03-11T22:24:26.809Z,5.93
2023-03-11T22:29:56.443Z,5.75
2023-03-11T22:32:41.165Z,7.47
2023-03-11T22:35:25.839Z,5.07
2023-03-11T22:38:11.231Z,7.10
2023-03-11T22:40:56.570Z,6.22
2023-03-11T22:43:41.523Z,6.43
2023-03-11T22:46:26.730Z,6.53
2023-03-11T22:51:56.051Z,9.30
2023-03-11T22:57:25.835Z,6.20
2023-03-11T23:00:20.172Z,7.60
2023-03-11T23:03:06.031Z,8.80
2023-03-11T23:05:51.355Z,7.82
2023-03-11T23:08:36.449Z,8.15
2023-03-11T23:11:21.498Z,7.05
2023-03-11T23:16:50.745Z,7.13
2023-03-11T23:19:36.119Z,6.70
2023-03-11T23:25:08.863Z,8.90
2023-03-11T23:27:53.904Z,12.80
2023-03-11T23:30:40.253Z,11.10
2023-03-11T23:33:25.398Z,7.50
2023-03-11T23:38:57.642Z,11.05
2023-03-11T23:41:42.289Z,7.80
2023-03-11T23:47:12.182Z,7.05
2023-03-11T23:52:41.809Z,9.25
2023-03-11T23:58:11.082Z,9.57
